sensor_id;sensor_type;location;lat;lon;timestamp;temperature;humidity
5150;DHT22;2593;52.466;13.436;2022-12-07T00:00:54;3.10;99.90
5150;DHT22;2593;52.466;13.436;2022-12-07T00:03:19;3.00;99.90
5150;DHT22;2593;52.466;13.436;2022-12-07T00:05:45;3.00;99.90
5150;DHT22;2593;52.466;13.436;2022-12-07T00:08:11;3.00;99.90
5150;DHT22;2593;52.466;13.436;2022-12-07T00:10:36;3.00;99.90
5150;DHT22;2593;52.466;13.436;2022-12-07T00:13:02;2.90;99.90
5150;DHT22;2593;52.466;13.436;2022-12-07T00:15:28;2.90;99.90
5150;DHT22;2593;52.466;13.436;2022-12-07T00:17:53;2.90;99.90
5150;DHT22;2593;52.466;13.436;2022-12-07T00:20:19;2.90;99.90
5150;DHT22;2593;52.466;13.436;2022-12-07T00:22:44;2.80;99.90
5150;DHT22;2593;52.466;13.436;2022-12-07T00:25:10;2.80;99.90
5150;DHT22;2593;52.466;13.436;2022-12-07T00:27:35;2.80;99.90
5150;DHT22;2593;52.466;13.436;2022-12-07T00:30:01;2.80;99.90
5150;DHT22;2593;52.466;13.436;2022-12-07T00:32:27;2.80;99.90
5150;DHT22;2593;52.466;13.436;2022-12-07T00:34:52;2.80;99.90
5150;DHT22;2593;52.466;13.436;2022-12-07T00:37:18;2.80;99.90
5150;DHT22;2593;52.466;13.436;2022-12-07T00:39:45;2.80;99.90
5150;DHT22;2593;52.466;13.436;2022-12-07T00:42:11;2.80;99.90
5150;DHT22;2593;52.466;13.436;2022-12-07T00:44:37;2.80;99.90
5150;DHT22;2593;52.466;13.436;2022-12-07T00:47:02;2.80;99.90
5150;DHT22;2593;52.466;13.436;2022-12-07T00:49:28;2.70;99.90
5150;DHT22;2593;52.466;13.436;2022-12-07T00:51:54;2.60;99.90
5150;DHT22;2593;52.466;13.436;2022-12-07T00:54:19;2.50;99.90
5150;DHT22;2593;52.466;13.436;2022-12-07T00:56:45;2.40;99.90
5150;DHT22;2593;52.466;13.436;2022-12-07T00:59:13;2.40;99.90
5150;DHT22;2593;52.466;13.436;2022-12-07T01:01:40;2.30;99.90
5150;DHT22;2593;52.466;13.436;2022-12-07T01:04:06;2.30;99.90
5150;DHT22;2593;52.466;13.436;2022-12-07T01:06:32;2.30;99.90
5150;DHT22;2593;52.466;13.436;2022-12-07T01:08:57;2.30;99.90
5150;DHT22;2593;52.466;13.436;2022-12-07T01:11:26;2.20;99.90
5150;DHT22;2593;52.466;13.436;2022-12-07T01:13:55;2.30;99.90
5150;DHT22;2593;52.466;13.436;2022-12-07T01:16:23;2.30;99.90
5150;DHT22;2593;52.466;13.436;2022-12-07T01:18:51;2.30;99.90
5150;DHT22;2593;52.466;13.436;2022-12-07T01:21:23;2.30;99.90
5150;DHT22;2593;52.466;13.436;2022-12-07T01:23:49;2.30;99.90
5150;DHT22;2593;52.466;13.436;2022-12-07T01:26:18;2.30;99.90
5150;DHT22;2593;52.466;13.436;2022-12-07T01:28:44;2.30;99.90
5150;DHT22;2593;52.466;13.436;2022-12-07T01:31:16;2.30;99.90
5150;DHT22;2593;52.466;13.436;2022-12-07T01:33:45;2.30;99.90
5150;DHT22;2593;52.466;13.436;2022-12-07T01:36:26;2.30;99.90
5150;DHT22;2593;52.466;13.436;2022-12-07T01:38:55;2.30;99.90
5150;DHT22;2593;52.466;13.436;2022-12-07T01:41:23;2.40;99.90
5150;DHT22;2593;52.466;13.436;2022-12-07T01:44:28;2.40;99.90
5150;DHT22;2593;52.466;13.436;2022-12-07T01:47:02;2.40;99.90
5150;DHT22;2593;52.466;13.436;2022-12-07T01:49:39;2.40;99.90
5150;DHT22;2593;52.466;13.436;2022-12-07T01:52:27;2.40;99.90
5150;DHT22;2593;52.466;13.436;2022-12-07T01:54:57;2.40;99.90
5150;DHT22;2593;52.466;13.436;2022-12-07T01:57:24;2.40;99.90
5150;DHT22;2593;52.466;13.436;2022-12-07T01:59:51;2.40;99.90
5150;DHT22;2593;52.466;13.436;2022-12-07T02:02:44;2.40;99.90
5150;DHT22;2593;52.466;13.436;2022-12-07T02:05:13;2.40;99.90
5150;DHT22;2593;52.466;13.436;2022-12-07T02:07:39;2.40;99.90
5150;DHT22;2593;52.466;13.436;2022-12-07T02:10:28;2.50;99.90
5150;DHT22;2593;52.466;13.436;2022-12-07T02:13:05;2.50;99.90
5150;DHT22;2593;52.466;13.436;2022-12-07T02:18:27;2.40;99.90
5150;DHT22;2593;52.466;13.436;2022-12-07T02:27:07;2.40;99.90
5150;DHT22;2593;52.466;13.436;2022-12-07T02:34:48;2.30;99.90
5150;DHT22;2593;52.466;13.436;2022-12-07T02:40:27;2.20;99.90
5150;DHT22;2593;52.466;13.436;2022-12-07T02:43:14;2.20;99.90
5150;DHT22;2593;52.466;13.436;2022-12-07T02:45:42;2.30;99.90
5150;DHT22;2593;52.466;13.436;2022-12-07T02:48:11;2.30;99.90
5150;DHT22;2593;52.466;13.436;2022-12-07T02:50:37;2.20;99.90
5150;DHT22;2593;52.466;13.436;2022-12-07T02:53:02;2.20;99.90
5150;DHT22;2593;52.466;13.436;2022-12-07T02:55:33;2.10;99.90
5150;DHT22;2593;52.466;13.436;2022-12-07T03:00:54;2.00;99.90
5150;DHT22;2593;52.466;13.436;2022-12-07T03:03:23;2.10;99.90
5150;DHT22;2593;52.466;13.436;2022-12-07T03:06:31;2.00;99.90
5150;DHT22;2593;52.466;13.436;2022-12-07T03:09:05;2.00;99.90
5150;DHT22;2593;52.466;13.436;2022-12-07T03:11:50;2.00;99.90
5150;DHT22;2593;52.466;13.436;2022-12-07T03:14:27;2.00;99.90
5150;DHT22;2593;52.466;13.436;2022-12-07T03:17:10;2.00;99.90
5150;DHT22;2593;52.466;13.436;2022-12-07T03:19:38;1.90;99.90
5150;DHT22;2593;52.466;13.436;2022-12-07T03:22:11;1.90;99.90
5150;DHT22;2593;52.466;13.436;2022-12-07T03:24:58;1.90;99.90
5150;DHT22;2593;52.466;13.436;2022-12-07T03:27:31;2.00;99.90
5150;DHT22;2593;52.466;13.436;2022-12-07T03:30:42;2.00;99.90
5150;DHT22;2593;52.466;13.436;2022-12-07T03:32:56;2.00;99.90
5150;DHT22;2593;52.466;13.436;2022-12-07T03:35:25;2.00;99.90
5150;DHT22;2593;52.466;13.436;2022-12-07T03:43:25;1.90;99.90
5150;DHT22;2593;52.466;13.436;2022-12-07T03:54:21;2.00;99.90
5150;DHT22;2593;52.466;13.436;2022-12-07T03:56:45;2.00;99.90
5150;DHT22;2593;52.466;13.436;2022-12-07T03:59:13;2.00;99.90
5150;DHT22;2593;52.466;13.436;2022-12-07T04:01:42;2.00;99.90
5150;DHT22;2593;52.466;13.436;2022-12-07T04:04:08;2.10;99.90
5150;DHT22;2593;52.466;13.436;2022-12-07T04:06:34;2.10;99.90
5150;DHT22;2593;52.466;13.436;2022-12-07T04:08:59;2.10;99.90
5150;DHT22;2593;52.466;13.436;2022-12-07T04:11:25;2.10;99.90
5150;DHT22;2593;52.466;13.436;2022-12-07T04:13:50;2.10;99.90
5150;DHT22;2593;52.466;13.436;2022-12-07T04:16:35;2.10;99.90
5150;DHT22;2593;52.466;13.436;2022-12-07T04:19:00;2.20;99.90
5150;DHT22;2593;52.466;13.436;2022-12-07T04:21:26;2.10;99.90
5150;DHT22;2593;52.466;13.436;2022-12-07T04:23:52;2.20;99.90
5150;DHT22;2593;52.466;13.436;2022-12-07T04:26:17;2.20;99.90
5150;DHT22;2593;52.466;13.436;2022-12-07T04:28:43;2.10;99.90
5150;DHT22;2593;52.466;13.436;2022-12-07T04:31:09;2.10;99.90
5150;DHT22;2593;52.466;13.436;2022-12-07T04:33:35;2.10;99.90
5150;DHT22;2593;52.466;13.436;2022-12-07T04:36:01;2.10;99.90
5150;DHT22;2593;52.466;13.436;2022-12-07T04:38:27;2.10;99.90
5150;DHT22;2593;52.466;13.436;2022-12-07T04:40:53;2.10;99.90
5150;DHT22;2593;52.466;13.436;2022-12-07T04:43:18;2.10;99.90
5150;DHT22;2593;52.466;13.436;2022-12-07T04:45:48;2.10;99.90
5150;DHT22;2593;52.466;13.436;2022-12-07T04:48:14;2.00;99.90
5150;DHT22;2593;52.466;13.436;2022-12-07T04:50:39;2.10;99.90
5150;DHT22;2593;52.466;13.436;2022-12-07T04:53:05;2.10;99.90
5150;DHT22;2593;52.466;13.436;2022-12-07T04:55:30;2.10;99.90
5150;DHT22;2593;52.466;13.436;2022-12-07T04:57:56;2.20;99.90
5150;DHT22;2593;52.466;13.436;2022-12-07T05:00:22;2.20;99.90
5150;DHT22;2593;52.466;13.436;2022-12-07T05:02:48;2.20;99.90
5150;DHT22;2593;52.466;13.436;2022-12-07T05:05:14;2.30;99.90
5150;DHT22;2593;52.466;13.436;2022-12-07T05:07:39;2.20;99.90
5150;DHT22;2593;52.466;13.436;2022-12-07T05:10:05;2.20;99.90
5150;DHT22;2593;52.466;13.436;2022-12-07T05:12:31;2.10;99.90
5150;DHT22;2593;52.466;13.436;2022-12-07T05:14:57;2.10;99.90
5150;DHT22;2593;52.466;13.436;2022-12-07T05:17:22;2.00;99.90
5150;DHT22;2593;52.466;13.436;2022-12-07T05:19:48;2.00;99.90
5150;DHT22;2593;52.466;13.436;2022-12-07T05:22:14;2.00;99.90
5150;DHT22;2593;52.466;13.436;2022-12-07T05:24:40;2.10;99.90
5150;DHT22;2593;52.466;13.436;2022-12-07T05:27:06;2.20;99.90
5150;DHT22;2593;52.466;13.436;2022-12-07T05:29:31;2.20;99.90
5150;DHT22;2593;52.466;13.436;2022-12-07T05:31:57;2.10;99.90
5150;DHT22;2593;52.466;13.436;2022-12-07T05:34:23;2.20;99.90
5150;DHT22;2593;52.466;13.436;2022-12-07T05:36:49;2.20;99.90
5150;DHT22;2593;52.466;13.436;2022-12-07T05:39:15;2.20;99.90
5150;DHT22;2593;52.466;13.436;2022-12-07T05:41:41;2.20;99.90
5150;DHT22;2593;52.466;13.436;2022-12-07T05:44:25;2.20;99.90
5150;DHT22;2593;52.466;13.436;2022-12-07T05:46:51;2.20;99.90
5150;DHT22;2593;52.466;13.436;2022-12-07T05:49:17;2.30;99.90
5150;DHT22;2593;52.466;13.436;2022-12-07T05:51:42;2.30;99.90
5150;DHT22;2593;52.466;13.436;2022-12-07T05:54:08;2.30;99.90
5150;DHT22;2593;52.466;13.436;2022-12-07T05:56:34;2.30;99.90
5150;DHT22;2593;52.466;13.436;2022-12-07T05:58:59;2.40;99.90
5150;DHT22;2593;52.466;13.436;2022-12-07T06:01:44;2.40;99.90
5150;DHT22;2593;52.466;13.436;2022-12-07T06:04:09;2.40;99.90
5150;DHT22;2593;52.466;13.436;2022-12-07T06:06:35;2.40;99.90
5150;DHT22;2593;52.466;13.436;2022-12-07T06:09:01;2.40;99.90
5150;DHT22;2593;52.466;13.436;2022-12-07T06:11:27;2.40;99.90
5150;DHT22;2593;52.466;13.436;2022-12-07T06:14:11;2.40;99.90
5150;DHT22;2593;52.466;13.436;2022-12-07T06:16:37;2.50;99.90
5150;DHT22;2593;52.466;13.436;2022-12-07T06:19:02;2.50;99.90
5150;DHT22;2593;52.466;13.436;2022-12-07T06:21:28;2.50;99.90
5150;DHT22;2593;52.466;13.436;2022-12-07T06:23:54;2.60;99.90
5150;DHT22;2593;52.466;13.436;2022-12-07T06:26:20;2.60;99.90
5150;DHT22;2593;52.466;13.436;2022-12-07T06:28:46;2.60;99.90
5150;DHT22;2593;52.466;13.436;2022-12-07T06:31:11;2.60;99.90
5150;DHT22;2593;52.466;13.436;2022-12-07T06:33:37;2.70;99.90
5150;DHT22;2593;52.466;13.436;2022-12-07T06:36:03;2.70;99.90
5150;DHT22;2593;52.466;13.436;2022-12-07T06:38:29;2.60;99.90
5150;DHT22;2593;52.466;13.436;2022-12-07T06:40:54;2.60;99.90
5150;DHT22;2593;52.466;13.436;2022-12-07T06:43:20;2.70;99.90
5150;DHT22;2593;52.466;13.436;2022-12-07T06:45:46;2.70;99.90
5150;DHT22;2593;52.466;13.436;2022-12-07T06:48:11;2.70;99.90
5150;DHT22;2593;52.466;13.436;2022-12-07T06:50:37;2.60;99.90
5150;DHT22;2593;52.466;13.436;2022-12-07T06:53:03;2.70;99.90
5150;DHT22;2593;52.466;13.436;2022-12-07T06:55:28;2.70;99.90
5150;DHT22;2593;52.466;13.436;2022-12-07T06:57:54;2.80;99.90
5150;DHT22;2593;52.466;13.436;2022-12-07T07:00:20;2.80;99.90
5150;DHT22;2593;52.466;13.436;2022-12-07T07:02:45;2.80;99.90
5150;DHT22;2593;52.466;13.436;2022-12-07T07:05:11;2.80;99.90
5150;DHT22;2593;52.466;13.436;2022-12-07T07:07:37;2.90;99.90
5150;DHT22;2593;52.466;13.436;2022-12-07T07:10:02;2.90;99.90
5150;DHT22;2593;52.466;13.436;2022-12-07T07:12:28;2.90;99.90
5150;DHT22;2593;52.466;13.436;2022-12-07T07:14:54;3.00;99.90
5150;DHT22;2593;52.466;13.436;2022-12-07T07:17:19;3.10;99.90
5150;DHT22;2593;52.466;13.436;2022-12-07T07:19:45;3.10;99.90
5150;DHT22;2593;52.466;13.436;2022-12-07T07:22:10;3.10;99.90
5150;DHT22;2593;52.466;13.436;2022-12-07T07:24:36;3.20;99.90
5150;DHT22;2593;52.466;13.436;2022-12-07T07:27:02;3.20;99.90
5150;DHT22;2593;52.466;13.436;2022-12-07T07:29:27;3.30;99.90
5150;DHT22;2593;52.466;13.436;2022-12-07T07:31:53;3.30;99.90
5150;DHT22;2593;52.466;13.436;2022-12-07T07:34:18;3.40;99.90
5150;DHT22;2593;52.466;13.436;2022-12-07T07:36:44;3.40;99.90
5150;DHT22;2593;52.466;13.436;2022-12-07T07:39:10;3.40;99.90
5150;DHT22;2593;52.466;13.436;2022-12-07T07:41:38;3.50;99.90
5150;DHT22;2593;52.466;13.436;2022-12-07T07:44:04;3.50;99.90
5150;DHT22;2593;52.466;13.436;2022-12-07T07:46:29;3.60;99.90
5150;DHT22;2593;52.466;13.436;2022-12-07T07:48:55;3.60;99.90
5150;DHT22;2593;52.466;13.436;2022-12-07T07:51:21;3.60;99.90
5150;DHT22;2593;52.466;13.436;2022-12-07T07:53:46;3.50;99.90
5150;DHT22;2593;52.466;13.436;2022-12-07T07:56:12;3.50;99.90
5150;DHT22;2593;52.466;13.436;2022-12-07T07:58:38;3.50;99.90
5150;DHT22;2593;52.466;13.436;2022-12-07T08:01:06;3.50;99.90
5150;DHT22;2593;52.466;13.436;2022-12-07T08:03:31;3.60;99.90
5150;DHT22;2593;52.466;13.436;2022-12-07T08:05:57;3.70;99.90
5150;DHT22;2593;52.466;13.436;2022-12-07T08:08:22;3.80;99.90
5150;DHT22;2593;52.466;13.436;2022-12-07T08:10:48;4.00;99.90
5150;DHT22;2593;52.466;13.436;2022-12-07T08:13:15;4.10;99.90
5150;DHT22;2593;52.466;13.436;2022-12-07T08:15:46;4.00;99.90
5150;DHT22;2593;52.466;13.436;2022-12-07T08:18:13;4.00;99.90
5150;DHT22;2593;52.466;13.436;2022-12-07T08:20:40;4.00;99.90
5150;DHT22;2593;52.466;13.436;2022-12-07T08:23:07;4.00;99.90
5150;DHT22;2593;52.466;13.436;2022-12-07T08:25:33;4.00;99.90
5150;DHT22;2593;52.466;13.436;2022-12-07T08:27:59;4.00;99.90
5150;DHT22;2593;52.466;13.436;2022-12-07T08:30:26;4.00;99.90
5150;DHT22;2593;52.466;13.436;2022-12-07T08:32:52;4.00;99.90
5150;DHT22;2593;52.466;13.436;2022-12-07T08:35:18;4.00;99.90
5150;DHT22;2593;52.466;13.436;2022-12-07T08:37:44;4.00;99.90
5150;DHT22;2593;52.466;13.436;2022-12-07T08:40:11;4.00;99.90
5150;DHT22;2593;52.466;13.436;2022-12-07T08:42:43;4.00;99.90
5150;DHT22;2593;52.466;13.436;2022-12-07T08:45:12;4.00;99.90
5150;DHT22;2593;52.466;13.436;2022-12-07T08:47:45;4.00;99.90
5150;DHT22;2593;52.466;13.436;2022-12-07T08:50:14;4.10;99.90
5150;DHT22;2593;52.466;13.436;2022-12-07T08:52:40;4.10;99.90
5150;DHT22;2593;52.466;13.436;2022-12-07T08:55:11;4.10;99.90
5150;DHT22;2593;52.466;13.436;2022-12-07T08:57:37;4.10;99.90
5150;DHT22;2593;52.466;13.436;2022-12-07T09:00:04;4.10;99.90
5150;DHT22;2593;52.466;13.436;2022-12-07T09:02:31;4.10;27.20
5150;DHT22;2593;52.466;13.436;2022-12-07T09:04:57;4.10;99.90
5150;DHT22;2593;52.466;13.436;2022-12-07T09:07:23;4.10;99.90
5150;DHT22;2593;52.466;13.436;2022-12-07T09:09:49;4.10;99.90
5150;DHT22;2593;52.466;13.436;2022-12-07T09:12:14;4.10;99.90
5150;DHT22;2593;52.466;13.436;2022-12-07T09:14:40;4.20;99.90
5150;DHT22;2593;52.466;13.436;2022-12-07T09:17:11;4.20;1.00
5150;DHT22;2593;52.466;13.436;2022-12-07T09:19:38;4.20;1.00
5150;DHT22;2593;52.466;13.436;2022-12-07T09:22:04;4.20;1.00
5150;DHT22;2593;52.466;13.436;2022-12-07T09:24:30;4.10;1.00
5150;DHT22;2593;52.466;13.436;2022-12-07T09:26:57;4.10;99.90
5150;DHT22;2593;52.466;13.436;2022-12-07T09:29:22;4.10;99.90
5150;DHT22;2593;52.466;13.436;2022-12-07T09:31:48;4.10;99.90
5150;DHT22;2593;52.466;13.436;2022-12-07T09:34:14;4.10;99.90
5150;DHT22;2593;52.466;13.436;2022-12-07T09:36:39;4.10;99.90
5150;DHT22;2593;52.466;13.436;2022-12-07T09:39:05;4.20;99.90
5150;DHT22;2593;52.466;13.436;2022-12-07T09:41:32;4.20;99.90
5150;DHT22;2593;52.466;13.436;2022-12-07T09:44:11;4.30;99.90
5150;DHT22;2593;52.466;13.436;2022-12-07T09:46:41;4.20;99.90
5150;DHT22;2593;52.466;13.436;2022-12-07T09:49:17;4.10;1.00
5150;DHT22;2593;52.466;13.436;2022-12-07T09:51:44;4.10;1.00
5150;DHT22;2593;52.466;13.436;2022-12-07T09:54:13;4.10;99.90
5150;DHT22;2593;52.466;13.436;2022-12-07T09:56:39;4.10;99.90
5150;DHT22;2593;52.466;13.436;2022-12-07T09:59:05;4.00;99.90
5150;DHT22;2593;52.466;13.436;2022-12-07T10:01:33;4.00;99.90
5150;DHT22;2593;52.466;13.436;2022-12-07T10:04:11;4.00;99.90
5150;DHT22;2593;52.466;13.436;2022-12-07T10:06:38;4.00;99.90
5150;DHT22;2593;52.466;13.436;2022-12-07T10:09:16;4.00;99.90
5150;DHT22;2593;52.466;13.436;2022-12-07T10:12:02;4.00;1.00
5150;DHT22;2593;52.466;13.436;2022-12-07T10:14:30;4.00;1.00
5150;DHT22;2593;52.466;13.436;2022-12-07T10:16:56;4.00;1.00
5150;DHT22;2593;52.466;13.436;2022-12-07T10:19:23;3.90;1.00
5150;DHT22;2593;52.466;13.436;2022-12-07T10:22:16;3.90;1.00
5150;DHT22;2593;52.466;13.436;2022-12-07T10:24:43;4.00;1.00
5150;DHT22;2593;52.466;13.436;2022-12-07T10:27:18;3.90;1.00
5150;DHT22;2593;52.466;13.436;2022-12-07T10:29:51;3.90;1.00
5150;DHT22;2593;52.466;13.436;2022-12-07T10:34:43;4.00;1.00
5150;DHT22;2593;52.466;13.436;2022-12-07T10:39:51;4.00;1.00
5150;DHT22;2593;52.466;13.436;2022-12-07T10:42:27;4.10;1.00
5150;DHT22;2593;52.466;13.436;2022-12-07T10:45:18;4.10;1.00
5150;DHT22;2593;52.466;13.436;2022-12-07T10:53:45;4.10;99.90
5150;DHT22;2593;52.466;13.436;2022-12-07T10:58:57;4.00;1.00
5150;DHT22;2593;52.466;13.436;2022-12-07T11:01:31;4.00;1.00
5150;DHT22;2593;52.466;13.436;2022-12-07T11:04:33;4.10;1.00
5150;DHT22;2593;52.466;13.436;2022-12-07T11:07:19;4.00;1.00
5150;DHT22;2593;52.466;13.436;2022-12-07T11:15:21;4.40;1.00
5150;DHT22;2593;52.466;13.436;2022-12-07T11:27:35;4.30;1.00
5150;DHT22;2593;52.466;13.436;2022-12-07T11:33:04;5.10;99.90
5150;DHT22;2593;52.466;13.436;2022-12-07T11:38:01;5.20;4.50
5150;DHT22;2593;52.466;13.436;2022-12-07T11:40:34;5.00;1.00
5150;DHT22;2593;52.466;13.436;2022-12-07T11:43:24;4.90;1.00
5150;DHT22;2593;52.466;13.436;2022-12-07T11:46:03;4.80;1.00
5150;DHT22;2593;52.466;13.436;2022-12-07T11:48:37;4.70;1.00
5150;DHT22;2593;52.466;13.436;2022-12-07T11:51:07;4.60;1.00
5150;DHT22;2593;52.466;13.436;2022-12-07T11:53:39;4.60;1.00
5150;DHT22;2593;52.466;13.436;2022-12-07T11:56:15;4.60;1.00
5150;DHT22;2593;52.466;13.436;2022-12-07T11:59:12;4.50;1.00
5150;DHT22;2593;52.466;13.436;2022-12-07T12:01:52;4.50;1.00
5150;DHT22;2593;52.466;13.436;2022-12-07T12:04:32;4.50;1.00
5150;DHT22;2593;52.466;13.436;2022-12-07T12:07:00;4.50;1.00
5150;DHT22;2593;52.466;13.436;2022-12-07T12:09:57;4.50;1.00
5150;DHT22;2593;52.466;13.436;2022-12-07T12:21:03;4.50;1.00
5150;DHT22;2593;52.466;13.436;2022-12-07T12:23:54;4.60;1.00
5150;DHT22;2593;52.466;13.436;2022-12-07T12:26:23;4.60;1.00
5150;DHT22;2593;52.466;13.436;2022-12-07T12:28:53;4.70;1.00
5150;DHT22;2593;52.466;13.436;2022-12-07T12:34:30;4.80;1.00
5150;DHT22;2593;52.466;13.436;2022-12-07T12:36:57;4.80;1.00
5150;DHT22;2593;52.466;13.436;2022-12-07T12:39:23;4.80;1.00
5150;DHT22;2593;52.466;13.436;2022-12-07T12:54:23;4.70;1.00
5150;DHT22;2593;52.466;13.436;2022-12-07T12:57:17;4.70;1.00
5150;DHT22;2593;52.466;13.436;2022-12-07T13:18:03;4.80;1.00
5150;DHT22;2593;52.466;13.436;2022-12-07T13:20:47;4.80;1.00
5150;DHT22;2593;52.466;13.436;2022-12-07T13:23:25;4.80;1.00
5150;DHT22;2593;52.466;13.436;2022-12-07T13:28:45;4.80;1.00
5150;DHT22;2593;52.466;13.436;2022-12-07T13:33:49;4.80;1.00
5150;DHT22;2593;52.466;13.436;2022-12-07T13:36:37;4.80;1.00
5150;DHT22;2593;52.466;13.436;2022-12-07T13:39:19;4.80;1.00
5150;DHT22;2593;52.466;13.436;2022-12-07T13:41:49;4.70;1.00
5150;DHT22;2593;52.466;13.436;2022-12-07T13:44:17;4.70;1.00
5150;DHT22;2593;52.466;13.436;2022-12-07T13:49:38;4.60;1.00
5150;DHT22;2593;52.466;13.436;2022-12-07T13:57:15;4.50;1.00
5150;DHT22;2593;52.466;13.436;2022-12-07T13:59:42;4.50;1.00
5150;DHT22;2593;52.466;13.436;2022-12-07T14:02:22;4.50;1.00
5150;DHT22;2593;52.466;13.436;2022-12-07T14:04:50;4.50;24.20
5150;DHT22;2593;52.466;13.436;2022-12-07T14:07:26;4.50;47.30
5150;DHT22;2593;52.466;13.436;2022-12-07T14:10:04;4.50;1.00
5150;DHT22;2593;52.466;13.436;2022-12-07T14:12:32;4.50;1.00
5150;DHT22;2593;52.466;13.436;2022-12-07T14:14:59;4.50;1.00
5150;DHT22;2593;52.466;13.436;2022-12-07T14:17:27;4.50;1.00
5150;DHT22;2593;52.466;13.436;2022-12-07T14:19:59;4.50;1.00
5150;DHT22;2593;52.466;13.436;2022-12-07T14:22:29;4.40;1.00
5150;DHT22;2593;52.466;13.436;2022-12-07T14:30:22;4.50;11.50
5150;DHT22;2593;52.466;13.436;2022-12-07T14:33:02;4.40;49.00
5150;DHT22;2593;52.466;13.436;2022-12-07T14:35:29;4.40;97.40
5150;DHT22;2593;52.466;13.436;2022-12-07T14:37:55;4.40;99.90
5150;DHT22;2593;52.466;13.436;2022-12-07T14:40:25;4.40;99.90
5150;DHT22;2593;52.466;13.436;2022-12-07T14:43:12;4.30;99.90
5150;DHT22;2593;52.466;13.436;2022-12-07T14:45:39;4.30;99.90
5150;DHT22;2593;52.466;13.436;2022-12-07T14:48:07;4.30;99.90
5150;DHT22;2593;52.466;13.436;2022-12-07T14:50:37;4.20;99.90
5150;DHT22;2593;52.466;13.436;2022-12-07T14:53:11;4.20;1.00
5150;DHT22;2593;52.466;13.436;2022-12-07T14:55:38;4.10;1.00
5150;DHT22;2593;52.466;13.436;2022-12-07T14:58:03;4.10;1.00
5150;DHT22;2593;52.466;13.436;2022-12-07T15:00:29;4.00;1.00
5150;DHT22;2593;52.466;13.436;2022-12-07T15:02:55;4.00;99.90
5150;DHT22;2593;52.466;13.436;2022-12-07T15:05:22;3.90;99.90
5150;DHT22;2593;52.466;13.436;2022-12-07T15:07:48;3.90;99.90
5150;DHT22;2593;52.466;13.436;2022-12-07T15:10:22;3.80;99.90
5150;DHT22;2593;52.466;13.436;2022-12-07T15:12:47;3.80;99.90
5150;DHT22;2593;52.466;13.436;2022-12-07T15:15:14;3.80;99.90
5150;DHT22;2593;52.466;13.436;2022-12-07T15:17:40;3.70;1.00
5150;DHT22;2593;52.466;13.436;2022-12-07T15:20:10;3.70;99.90
5150;DHT22;2593;52.466;13.436;2022-12-07T15:22:37;3.60;99.90
5150;DHT22;2593;52.466;13.436;2022-12-07T15:25:02;3.60;99.90
5150;DHT22;2593;52.466;13.436;2022-12-07T15:27:31;3.60;99.90
5150;DHT22;2593;52.466;13.436;2022-12-07T15:29:56;3.60;99.90
5150;DHT22;2593;52.466;13.436;2022-12-07T15:32:22;3.50;99.90
5150;DHT22;2593;52.466;13.436;2022-12-07T15:34:48;3.50;1.00
5150;DHT22;2593;52.466;13.436;2022-12-07T15:37:15;3.50;99.90
5150;DHT22;2593;52.466;13.436;2022-12-07T15:39:41;3.50;1.00
5150;DHT22;2593;52.466;13.436;2022-12-07T15:42:07;3.50;99.90
5150;DHT22;2593;52.466;13.436;2022-12-07T15:44:33;3.50;99.90
5150;DHT22;2593;52.466;13.436;2022-12-07T15:47:17;3.50;1.00
5150;DHT22;2593;52.466;13.436;2022-12-07T15:49:43;3.50;99.90
5150;DHT22;2593;52.466;13.436;2022-12-07T15:52:09;3.50;99.90
5150;DHT22;2593;52.466;13.436;2022-12-07T15:54:34;3.50;99.90
5150;DHT22;2593;52.466;13.436;2022-12-07T15:57:00;3.50;99.90
5150;DHT22;2593;52.466;13.436;2022-12-07T15:59:27;3.50;1.00
5150;DHT22;2593;52.466;13.436;2022-12-07T16:01:53;3.50;1.00
5150;DHT22;2593;52.466;13.436;2022-12-07T16:04:19;3.40;37.40
5150;DHT22;2593;52.466;13.436;2022-12-07T16:06:44;3.40;99.90
5150;DHT22;2593;52.466;13.436;2022-12-07T16:09:10;3.50;99.90
5150;DHT22;2593;52.466;13.436;2022-12-07T16:11:36;3.50;1.00
5150;DHT22;2593;52.466;13.436;2022-12-07T16:14:01;3.50;1.00
5150;DHT22;2593;52.466;13.436;2022-12-07T16:16:27;3.50;1.00
5150;DHT22;2593;52.466;13.436;2022-12-07T16:18:53;3.50;1.00
5150;DHT22;2593;52.466;13.436;2022-12-07T16:21:19;3.50;99.90
5150;DHT22;2593;52.466;13.436;2022-12-07T16:23:45;3.40;99.90
5150;DHT22;2593;52.466;13.436;2022-12-07T16:26:13;3.40;99.90
5150;DHT22;2593;52.466;13.436;2022-12-07T16:28:39;3.40;99.90
5150;DHT22;2593;52.466;13.436;2022-12-07T16:31:11;3.40;32.10
5150;DHT22;2593;52.466;13.436;2022-12-07T16:36:13;3.30;99.90
5150;DHT22;2593;52.466;13.436;2022-12-07T16:38:41;3.40;99.90
5150;DHT22;2593;52.466;13.436;2022-12-07T16:41:08;3.30;99.90
5150;DHT22;2593;52.466;13.436;2022-12-07T16:43:34;3.30;99.90
5150;DHT22;2593;52.466;13.436;2022-12-07T16:46:01;3.40;99.90
5150;DHT22;2593;52.466;13.436;2022-12-07T16:48:27;3.70;1.00
5150;DHT22;2593;52.466;13.436;2022-12-07T16:50:52;3.60;99.90
5150;DHT22;2593;52.466;13.436;2022-12-07T16:53:20;3.50;99.90
5150;DHT22;2593;52.466;13.436;2022-12-07T16:55:46;3.40;99.90
5150;DHT22;2593;52.466;13.436;2022-12-07T16:58:13;3.30;1.00
5150;DHT22;2593;52.466;13.436;2022-12-07T17:00:40;3.30;1.00
5150;DHT22;2593;52.466;13.436;2022-12-07T17:03:07;3.20;99.90
5150;DHT22;2593;52.466;13.436;2022-12-07T17:05:36;3.10;99.90
5150;DHT22;2593;52.466;13.436;2022-12-07T17:08:02;3.10;99.90
5150;DHT22;2593;52.466;13.436;2022-12-07T17:10:28;3.00;1.00
5150;DHT22;2593;52.466;13.436;2022-12-07T17:12:54;3.00;99.90
5150;DHT22;2593;52.466;13.436;2022-12-07T17:15:19;3.00;99.90
5150;DHT22;2593;52.466;13.436;2022-12-07T17:17:54;2.90;99.90
5150;DHT22;2593;52.466;13.436;2022-12-07T17:20:22;2.90;99.90
5150;DHT22;2593;52.466;13.436;2022-12-07T17:22:48;2.90;99.90
5150;DHT22;2593;52.466;13.436;2022-12-07T17:25:13;2.90;1.00
5150;DHT22;2593;52.466;13.436;2022-12-07T17:27:39;2.90;99.90
5150;DHT22;2593;52.466;13.436;2022-12-07T17:30:06;2.80;1.00
5150;DHT22;2593;52.466;13.436;2022-12-07T17:32:32;2.80;1.00
5150;DHT22;2593;52.466;13.436;2022-12-07T17:34:58;2.80;99.90
5150;DHT22;2593;52.466;13.436;2022-12-07T17:37:23;2.80;99.90
5150;DHT22;2593;52.466;13.436;2022-12-07T17:39:49;2.80;99.90
5150;DHT22;2593;52.466;13.436;2022-12-07T17:42:14;2.70;99.90
5150;DHT22;2593;52.466;13.436;2022-12-07T17:44:59;2.70;99.90
5150;DHT22;2593;52.466;13.436;2022-12-07T17:47:24;2.60;1.00
5150;DHT22;2593;52.466;13.436;2022-12-07T17:49:50;2.60;99.90
5150;DHT22;2593;52.466;13.436;2022-12-07T17:52:15;2.60;99.90
5150;DHT22;2593;52.466;13.436;2022-12-07T17:54:59;2.50;1.00
5150;DHT22;2593;52.466;13.436;2022-12-07T17:57:25;2.50;15.70
5150;DHT22;2593;52.466;13.436;2022-12-07T17:59:51;2.50;99.90
5150;DHT22;2593;52.466;13.436;2022-12-07T18:02:17;2.50;99.90
5150;DHT22;2593;52.466;13.436;2022-12-07T18:04:43;2.50;99.90
5150;DHT22;2593;52.466;13.436;2022-12-07T18:07:10;2.50;99.90
5150;DHT22;2593;52.466;13.436;2022-12-07T18:09:35;2.50;99.90
5150;DHT22;2593;52.466;13.436;2022-12-07T18:12:02;2.40;99.90
5150;DHT22;2593;52.466;13.436;2022-12-07T18:14:27;2.40;99.90
5150;DHT22;2593;52.466;13.436;2022-12-07T18:16:53;2.40;1.00
5150;DHT22;2593;52.466;13.436;2022-12-07T18:19:19;2.40;1.00
5150;DHT22;2593;52.466;13.436;2022-12-07T18:21:45;2.40;1.00
5150;DHT22;2593;52.466;13.436;2022-12-07T18:24:13;2.30;1.00
5150;DHT22;2593;52.466;13.436;2022-12-07T18:26:39;2.30;1.00
5150;DHT22;2593;52.466;13.436;2022-12-07T18:29:06;2.30;61.60